sensor_id;sensor_type;location;lat;lon;timestamp;P1;durP1;ratioP1;P2;durP2;ratioP2
14847;SDS011;7516;43.570;1.448;2023-07-24T00:01:59;8.95;;;5.03;;
14847;SDS011;7516;43.570;1.448;2023-07-24T00:04:26;7.80;;;4.90;;
14847;SDS011;7516;43.570;1.448;2023-07-24T00:06:56;8.52;;;5.20;;
14847;SDS011;7516;43.570;1.448;2023-07-24T00:09:23;7.32;;;4.85;;
14847;SDS011;7516;43.570;1.448;2023-07-24T00:11:52;8.65;;;4.97;;
14847;SDS011;7516;43.570;1.448;2023-07-24T00:14:20;7.68;;;4.85;;
14847;SDS011;7516;43.570;1.448;2023-07-24T00:16:47;9.20;;;5.30;;
14847;SDS011;7516;43.570;1.448;2023-07-24T00:19:14;9.32;;;5.20;;
14847;SDS011;7516;43.570;1.448;2023-07-24T00:21:42;11.40;;;5.53;;
14847;SDS011;7516;43.570;1.448;2023-07-24T00:24:09;10.30;;;5.40;;
14847;SDS011;7516;43.570;1.448;2023-07-24T00:26:37;8.25;;;4.88;;
14847;SDS011;7516;43.570;1.448;2023-07-24T00:29:06;9.63;;;5.25;;
14847;SDS011;7516;43.570;1.448;2023-07-24T00:31:33;10.70;;;5.25;;
14847;SDS011;7516;43.570;1.448;2023-07-24T00:34:00;6.28;;;5.15;;
14847;SDS011;7516;43.570;1.448;2023-07-24T00:36:28;8.02;;;4.72;;
14847;SDS011;7516;43.570;1.448;2023-07-24T00:38:55;9.88;;;5.40;;
14847;SDS011;7516;43.570;1.448;2023-07-24T00:41:23;7.38;;;5.10;;
14847;SDS011;7516;43.570;1.448;2023-07-24T00:43:50;9.10;;;5.47;;
14847;SDS011;7516;43.570;1.448;2023-07-24T00:46:19;8.77;;;5.20;;
14847;SDS011;7516;43.570;1.448;2023-07-24T00:48:47;10.07;;;5.40;;
14847;SDS011;7516;43.570;1.448;2023-07-24T00:51:15;9.38;;;5.53;;
14847;SDS011;7516;43.570;1.448;2023-07-24T00:53:43;9.60;;;5.47;;
14847;SDS011;7516;43.570;1.448;2023-07-24T00:56:12;9.63;;;5.38;;
14847;SDS011;7516;43.570;1.448;2023-07-24T00:58:40;7.18;;;4.85;;
14847;SDS011;7516;43.570;1.448;2023-07-24T01:01:08;9.82;;;4.60;;
14847;SDS011;7516;43.570;1.448;2023-07-24T01:03:38;8.23;;;4.97;;
14847;SDS011;7516;43.570;1.448;2023-07-24T01:06:08;8.77;;;5.30;;
14847;SDS011;7516;43.570;1.448;2023-07-24T01:08:36;9.20;;;4.75;;
14847;SDS011;7516;43.570;1.448;2023-07-24T01:11:05;8.95;;;5.43;;
14847;SDS011;7516;43.570;1.448;2023-07-24T01:13:37;7.95;;;4.97;;
14847;SDS011;7516;43.570;1.448;2023-07-24T01:16:13;8.30;;;4.80;;
14847;SDS011;7516;43.570;1.448;2023-07-24T01:18:46;8.60;;;5.03;;
14847;SDS011;7516;43.570;1.448;2023-07-24T01:21:16;8.77;;;5.55;;
14847;SDS011;7516;43.570;1.448;2023-07-24T01:23:50;8.10;;;5.72;;
14847;SDS011;7516;43.570;1.448;2023-07-24T01:26:29;10.20;;;5.43;;
14847;SDS011;7516;43.570;1.448;2023-07-24T01:28:57;7.38;;;5.25;;
14847;SDS011;7516;43.570;1.448;2023-07-24T01:31:24;5.47;;;4.97;;
14847;SDS011;7516;43.570;1.448;2023-07-24T01:33:52;5.88;;;4.80;;
14847;SDS011;7516;43.570;1.448;2023-07-24T01:36:19;6.65;;;4.47;;
14847;SDS011;7516;43.570;1.448;2023-07-24T01:38:47;5.30;;;4.80;;
14847;SDS011;7516;43.570;1.448;2023-07-24T01:41:16;5.38;;;4.70;;
14847;SDS011;7516;43.570;1.448;2023-07-24T01:43:46;7.10;;;4.75;;
14847;SDS011;7516;43.570;1.448;2023-07-24T01:46:14;5.45;;;4.78;;
14847;SDS011;7516;43.570;1.448;2023-07-24T01:48:41;6.32;;;5.07;;
14847;SDS011;7516;43.570;1.448;2023-07-24T01:51:09;7.43;;;5.88;;
14847;SDS011;7516;43.570;1.448;2023-07-24T01:53:36;6.13;;;5.43;;
14847;SDS011;7516;43.570;1.448;2023-07-24T01:56:04;7.38;;;5.15;;
14847;SDS011;7516;43.570;1.448;2023-07-24T01:58:31;6.97;;;5.50;;
14847;SDS011;7516;43.570;1.448;2023-07-24T02:01:00;6.43;;;5.82;;
14847;SDS011;7516;43.570;1.448;2023-07-24T02:03:27;7.18;;;6.07;;
14847;SDS011;7516;43.570;1.448;2023-07-24T02:05:55;7.30;;;5.88;;
14847;SDS011;7516;43.570;1.448;2023-07-24T02:08:22;7.40;;;6.15;;
14847;SDS011;7516;43.570;1.448;2023-07-24T02:10:50;7.20;;;6.32;;
14847;SDS011;7516;43.570;1.448;2023-07-24T02:13:17;9.05;;;6.53;;
14847;SDS011;7516;43.570;1.448;2023-07-24T02:15:44;7.07;;;6.38;;
14847;SDS011;7516;43.570;1.448;2023-07-24T02:18:13;8.32;;;7.00;;
14847;SDS011;7516;43.570;1.448;2023-07-24T02:20:41;9.98;;;6.57;;
14847;SDS011;7516;43.570;1.448;2023-07-24T02:23:14;7.55;;;6.43;;
14847;SDS011;7516;43.570;1.448;2023-07-24T02:25:41;7.50;;;6.80;;
14847;SDS011;7516;43.570;1.448;2023-07-24T02:28:09;8.02;;;7.22;;
14847;SDS011;7516;43.570;1.448;2023-07-24T02:30:37;7.05;;;6.35;;
14847;SDS011;7516;43.570;1.448;2023-07-24T02:33:05;7.10;;;6.40;;
14847;SDS011;7516;43.570;1.448;2023-07-24T02:35:39;6.57;;;5.82;;
14847;SDS011;7516;43.570;1.448;2023-07-24T02:38:06;7.57;;;6.70;;
14847;SDS011;7516;43.570;1.448;2023-07-24T02:40:35;6.45;;;5.85;;
14847;SDS011;7516;43.570;1.448;2023-07-24T02:43:02;6.85;;;6.15;;
14847;SDS011;7516;43.570;1.448;2023-07-24T02:45:29;6.60;;;5.85;;
14847;SDS011;7516;43.570;1.448;2023-07-24T02:47:59;7.82;;;6.25;;
14847;SDS011;7516;43.570;1.448;2023-07-24T02:50:27;6.90;;;5.63;;
14847;SDS011;7516;43.570;1.448;2023-07-24T02:52:56;6.45;;;5.60;;
14847;SDS011;7516;43.570;1.448;2023-07-24T02:55:24;7.20;;;6.50;;
14847;SDS011;7516;43.570;1.448;2023-07-24T02:57:51;6.30;;;5.70;;
14847;SDS011;7516;43.570;1.448;2023-07-24T03:00:19;6.43;;;5.78;;
14847;SDS011;7516;43.570;1.448;2023-07-24T03:02:47;6.35;;;5.75;;
14847;SDS011;7516;43.570;1.448;2023-07-24T03:05:14;7.35;;;5.70;;
14847;SDS011;7516;43.570;1.448;2023-07-24T03:07:41;6.93;;;6.18;;
14847;SDS011;7516;43.570;1.448;2023-07-24T03:10:10;6.55;;;5.47;;
14847;SDS011;7516;43.570;1.448;2023-07-24T03:12:38;6.82;;;6.13;;
14847;SDS011;7516;43.570;1.448;2023-07-24T03:15:06;9.18;;;5.85;;
14847;SDS011;7516;43.570;1.448;2023-07-24T03:17:34;6.65;;;5.90;;
14847;SDS011;7516;43.570;1.448;2023-07-24T03:20:07;8.30;;;5.85;;
14847;SDS011;7516;43.570;1.448;2023-07-24T03:22:35;7.80;;;6.63;;
14847;SDS011;7516;43.570;1.448;2023-07-24T03:25:03;6.85;;;6.25;;
14847;SDS011;7516;43.570;1.448;2023-07-24T03:27:32;7.78;;;5.68;;
14847;SDS011;7516;43.570;1.448;2023-07-24T03:30:00;7.10;;;5.80;;
14847;SDS011;7516;43.570;1.448;2023-07-24T03:32:27;7.75;;;6.22;;
14847;SDS011;7516;43.570;1.448;2023-07-24T03:34:55;7.18;;;5.78;;
14847;SDS011;7516;43.570;1.448;2023-07-24T03:37:22;6.35;;;5.40;;
14847;SDS011;7516;43.570;1.448;2023-07-24T03:39:50;5.65;;;5.05;;
14847;SDS011;7516;43.570;1.448;2023-07-24T03:42:24;6.53;;;5.32;;
14847;SDS011;7516;43.570;1.448;2023-07-24T03:44:54;6.32;;;5.68;;
14847;SDS011;7516;43.570;1.448;2023-07-24T03:47:21;5.85;;;5.03;;
14847;SDS011;7516;43.570;1.448;2023-07-24T03:49:49;5.57;;;5.00;;
14847;SDS011;7516;43.570;1.448;2023-07-24T03:52:17;7.68;;;5.13;;
14847;SDS011;7516;43.570;1.448;2023-07-24T03:54:44;6.45;;;5.38;;
14847;SDS011;7516;43.570;1.448;2023-07-24T03:57:12;5.53;;;5.00;;
14847;SDS011;7516;43.570;1.448;2023-07-24T03:59:39;6.22;;;4.70;;
14847;SDS011;7516;43.570;1.448;2023-07-24T04:02:08;5.25;;;4.72;;
14847;SDS011;7516;43.570;1.448;2023-07-24T04:04:36;5.05;;;4.45;;
14847;SDS011;7516;43.570;1.448;2023-07-24T04:07:03;7.00;;;4.85;;
14847;SDS011;7516;43.570;1.448;2023-07-24T04:09:31;5.43;;;4.60;;
14847;SDS011;7516;43.570;1.448;2023-07-24T04:11:59;4.88;;;4.38;;
14847;SDS011;7516;43.570;1.448;2023-07-24T04:14:26;5.80;;;5.03;;
14847;SDS011;7516;43.570;1.448;2023-07-24T04:16:54;5.45;;;4.25;;
14847;SDS011;7516;43.570;1.448;2023-07-24T04:19:23;4.85;;;4.18;;
14847;SDS011;7516;43.570;1.448;2023-07-24T04:21:50;5.25;;;4.35;;
14847;SDS011;7516;43.570;1.448;2023-07-24T04:24:18;4.35;;;3.95;;
14847;SDS011;7516;43.570;1.448;2023-07-24T04:26:45;6.30;;;4.47;;
14847;SDS011;7516;43.570;1.448;2023-07-24T04:29:13;6.25;;;4.65;;
14847;SDS011;7516;43.570;1.448;2023-07-24T04:31:40;5.85;;;4.10;;
14847;SDS011;7516;43.570;1.448;2023-07-24T04:34:07;5.40;;;4.40;;
14847;SDS011;7516;43.570;1.448;2023-07-24T04:36:36;5.72;;;4.90;;
14847;SDS011;7516;43.570;1.448;2023-07-24T04:39:04;4.18;;;3.72;;
14847;SDS011;7516;43.570;1.448;2023-07-24T04:41:31;5.82;;;4.60;;
14847;SDS011;7516;43.570;1.448;2023-07-24T04:43:59;7.82;;;4.88;;
14847;SDS011;7516;43.570;1.448;2023-07-24T04:46:26;5.57;;;4.97;;
14847;SDS011;7516;43.570;1.448;2023-07-24T04:48:53;5.32;;;4.03;;
14847;SDS011;7516;43.570;1.448;2023-07-24T04:51:21;6.22;;;4.40;;
14847;SDS011;7516;43.570;1.448;2023-07-24T04:53:50;6.63;;;4.47;;
14847;SDS011;7516;43.570;1.448;2023-07-24T04:56:17;4.22;;;3.83;;
14847;SDS011;7516;43.570;1.448;2023-07-24T04:58:45;5.53;;;4.50;;
14847;SDS011;7516;43.570;1.448;2023-07-24T05:01:12;5.93;;;4.22;;
14847;SDS011;7516;43.570;1.448;2023-07-24T05:03:39;5.85;;;4.65;;
14847;SDS011;7516;43.570;1.448;2023-07-24T05:06:07;5.82;;;4.78;;
14847;SDS011;7516;43.570;1.448;2023-07-24T05:08:34;5.03;;;4.22;;
14847;SDS011;7516;43.570;1.448;2023-07-24T05:11:03;5.63;;;4.28;;
14847;SDS011;7516;43.570;1.448;2023-07-24T05:13:31;7.57;;;4.60;;
14847;SDS011;7516;43.570;1.448;2023-07-24T05:15:58;6.30;;;5.15;;
14847;SDS011;7516;43.570;1.448;2023-07-24T05:18:25;5.32;;;4.70;;
14847;SDS011;7516;43.570;1.448;2023-07-24T05:20:53;6.25;;;4.85;;
14847;SDS011;7516;43.570;1.448;2023-07-24T05:23:20;5.35;;;4.28;;
14847;SDS011;7516;43.570;1.448;2023-07-24T05:25:55;4.40;;;3.78;;
14847;SDS011;7516;43.570;1.448;2023-07-24T05:28:25;7.00;;;4.47;;
14847;SDS011;7516;43.570;1.448;2023-07-24T05:30:52;5.15;;;4.15;;
14847;SDS011;7516;43.570;1.448;2023-07-24T05:33:20;5.10;;;4.40;;
14847;SDS011;7516;43.570;1.448;2023-07-24T05:35:48;4.97;;;4.10;;
14847;SDS011;7516;43.570;1.448;2023-07-24T05:38:15;5.30;;;4.18;;
14847;SDS011;7516;43.570;1.448;2023-07-24T05:40:43;5.95;;;4.70;;
14847;SDS011;7516;43.570;1.448;2023-07-24T05:43:10;6.28;;;4.47;;
14847;SDS011;7516;43.570;1.448;2023-07-24T05:45:39;4.90;;;4.22;;
14847;SDS011;7516;43.570;1.448;2023-07-24T05:48:06;6.72;;;4.95;;
14847;SDS011;7516;43.570;1.448;2023-07-24T05:50:34;7.03;;;5.00;;
14847;SDS011;7516;43.570;1.448;2023-07-24T05:53:01;7.50;;;4.53;;
14847;SDS011;7516;43.570;1.448;2023-07-24T05:55:29;5.28;;;4.43;;
14847;SDS011;7516;43.570;1.448;2023-07-24T05:57:56;9.20;;;4.18;;
14847;SDS011;7516;43.570;1.448;2023-07-24T06:00:24;5.88;;;4.50;;
14847;SDS011;7516;43.570;1.448;2023-07-24T06:02:52;5.18;;;4.50;;
14847;SDS011;7516;43.570;1.448;2023-07-24T06:05:20;4.90;;;4.00;;
14847;SDS011;7516;43.570;1.448;2023-07-24T06:07:47;5.18;;;4.47;;
14847;SDS011;7516;43.570;1.448;2023-07-24T06:10:15;5.95;;;3.55;;
14847;SDS011;7516;43.570;1.448;2023-07-24T06:12:42;4.75;;;4.22;;
14847;SDS011;7516;43.570;1.448;2023-07-24T06:15:10;4.45;;;3.80;;
14847;SDS011;7516;43.570;1.448;2023-07-24T06:17:37;4.60;;;3.88;;
14847;SDS011;7516;43.570;1.448;2023-07-24T06:20:07;5.65;;;4.80;;
14847;SDS011;7516;43.570;1.448;2023-07-24T06:22:35;4.45;;;3.90;;
14847;SDS011;7516;43.570;1.448;2023-07-24T06:25:03;4.07;;;3.67;;
14847;SDS011;7516;43.570;1.448;2023-07-24T06:27:31;6.30;;;4.38;;
14847;SDS011;7516;43.570;1.448;2023-07-24T06:29:58;6.03;;;4.30;;
14847;SDS011;7516;43.570;1.448;2023-07-24T06:32:26;6.25;;;4.28;;
14847;SDS011;7516;43.570;1.448;2023-07-24T06:34:54;5.00;;;4.15;;
14847;SDS011;7516;43.570;1.448;2023-07-24T06:37:23;5.32;;;4.38;;
14847;SDS011;7516;43.570;1.448;2023-07-24T06:39:50;5.68;;;4.35;;
14847;SDS011;7516;43.570;1.448;2023-07-24T06:42:17;4.45;;;3.75;;
14847;SDS011;7516;43.570;1.448;2023-07-24T06:44:45;4.43;;;3.83;;
14847;SDS011;7516;43.570;1.448;2023-07-24T06:47:12;5.22;;;4.00;;
14847;SDS011;7516;43.570;1.448;2023-07-24T06:49:40;6.72;;;4.60;;
14847;SDS011;7516;43.570;1.448;2023-07-24T06:52:07;5.82;;;4.10;;
14847;SDS011;7516;43.570;1.448;2023-07-24T06:54:36;4.05;;;3.25;;
14847;SDS011;7516;43.570;1.448;2023-07-24T06:57:04;4.97;;;3.75;;
14847;SDS011;7516;43.570;1.448;2023-07-24T06:59:31;4.93;;;4.05;;
14847;SDS011;7516;43.570;1.448;2023-07-24T07:01:59;3.55;;;3.05;;
14847;SDS011;7516;43.570;1.448;2023-07-24T07:04:26;5.35;;;3.67;;
14847;SDS011;7516;43.570;1.448;2023-07-24T07:06:54;5.07;;;3.20;;
14847;SDS011;7516;43.570;1.448;2023-07-24T07:09:21;5.20;;;3.95;;
14847;SDS011;7516;43.570;1.448;2023-07-24T07:11:50;4.72;;;4.10;;
14847;SDS011;7516;43.570;1.448;2023-07-24T07:14:18;4.93;;;3.80;;
14847;SDS011;7516;43.570;1.448;2023-07-24T07:16:45;5.55;;;3.90;;
14847;SDS011;7516;43.570;1.448;2023-07-24T07:19:13;5.72;;;4.07;;
14847;SDS011;7516;43.570;1.448;2023-07-24T07:21:40;4.45;;;3.83;;
14847;SDS011;7516;43.570;1.448;2023-07-24T07:24:08;4.88;;;4.38;;
14847;SDS011;7516;43.570;1.448;2023-07-24T07:26:36;5.38;;;3.80;;
14847;SDS011;7516;43.570;1.448;2023-07-24T07:29:05;7.03;;;3.88;;
14847;SDS011;7516;43.570;1.448;2023-07-24T07:31:32;5.10;;;3.97;;
14847;SDS011;7516;43.570;1.448;2023-07-24T07:34:00;4.72;;;3.90;;
14847;SDS011;7516;43.570;1.448;2023-07-24T07:36:27;4.13;;;3.72;;
14847;SDS011;7516;43.570;1.448;2023-07-24T07:38:54;5.93;;;3.78;;
14847;SDS011;7516;43.570;1.448;2023-07-24T07:41:22;5.25;;;3.90;;
14847;SDS011;7516;43.570;1.448;2023-07-24T07:43:49;5.10;;;3.60;;
14847;SDS011;7516;43.570;1.448;2023-07-24T07:46:18;5.97;;;4.07;;
14847;SDS011;7516;43.570;1.448;2023-07-24T07:48:46;5.35;;;3.88;;
14847;SDS011;7516;43.570;1.448;2023-07-24T07:51:14;5.32;;;3.90;;
14847;SDS011;7516;43.570;1.448;2023-07-24T07:53:41;4.90;;;4.40;;
14847;SDS011;7516;43.570;1.448;2023-07-24T07:56:09;5.13;;;3.80;;
14847;SDS011;7516;43.570;1.448;2023-07-24T07:58:36;8.20;;;4.90;;
14847;SDS011;7516;43.570;1.448;2023-07-24T08:01:04;6.00;;;4.25;;
14847;SDS011;7516;43.570;1.448;2023-07-24T08:03:33;4.57;;;4.00;;
14847;SDS011;7516;43.570;1.448;2023-07-24T08:06:00;3.80;;;3.40;;
14847;SDS011;7516;43.570;1.448;2023-07-24T08:08:28;4.32;;;3.92;;
14847;SDS011;7516;43.570;1.448;2023-07-24T08:10:55;4.47;;;4.00;;
14847;SDS011;7516;43.570;1.448;2023-07-24T08:13:23;4.68;;;3.65;;
14847;SDS011;7516;43.570;1.448;2023-07-24T08:15:50;4.97;;;4.00;;
14847;SDS011;7516;43.570;1.448;2023-07-24T08:18:18;4.75;;;3.83;;
14847;SDS011;7516;43.570;1.448;2023-07-24T08:20:47;5.05;;;4.20;;
14847;SDS011;7516;43.570;1.448;2023-07-24T08:23:14;6.10;;;4.57;;
14847;SDS011;7516;43.570;1.448;2023-07-24T08:25:50;5.07;;;4.57;;
14847;SDS011;7516;43.570;1.448;2023-07-24T08:28:18;4.63;;;4.15;;
14847;SDS011;7516;43.570;1.448;2023-07-24T08:30:46;5.95;;;4.50;;
14847;SDS011;7516;43.570;1.448;2023-07-24T08:33:23;5.07;;;4.20;;
14847;SDS011;7516;43.570;1.448;2023-07-24T08:35:59;5.45;;;4.10;;
14847;SDS011;7516;43.570;1.448;2023-07-24T08:38:27;4.00;;;3.70;;
14847;SDS011;7516;43.570;1.448;2023-07-24T08:41:01;4.38;;;3.50;;
14847;SDS011;7516;43.570;1.448;2023-07-24T08:43:30;5.75;;;4.40;;
14847;SDS011;7516;43.570;1.448;2023-07-24T08:45:59;4.95;;;3.95;;
14847;SDS011;7516;43.570;1.448;2023-07-24T08:48:27;6.25;;;4.30;;
14847;SDS011;7516;43.570;1.448;2023-07-24T08:51:02;7.22;;;3.80;;
14847;SDS011;7516;43.570;1.448;2023-07-24T08:53:30;4.07;;;3.67;;
14847;SDS011;7516;43.570;1.448;2023-07-24T08:56:00;5.05;;;3.53;;
14847;SDS011;7516;43.570;1.448;2023-07-24T08:58:29;4.57;;;3.50;;
14847;SDS011;7516;43.570;1.448;2023-07-24T09:00:57;3.85;;;3.35;;
14847;SDS011;7516;43.570;1.448;2023-07-24T09:03:26;4.38;;;3.92;;
14847;SDS011;7516;43.570;1.448;2023-07-24T09:05:54;4.00;;;3.47;;
14847;SDS011;7516;43.570;1.448;2023-07-24T09:08:29;5.00;;;3.80;;
14847;SDS011;7516;43.570;1.448;2023-07-24T09:10:57;5.45;;;3.50;;
14847;SDS011;7516;43.570;1.448;2023-07-24T09:13:25;4.78;;;3.55;;
14847;SDS011;7516;43.570;1.448;2023-07-24T09:15:53;4.00;;;3.35;;
14847;SDS011;7516;43.570;1.448;2023-07-24T09:18:21;6.25;;;3.45;;
14847;SDS011;7516;43.570;1.448;2023-07-24T09:20:49;5.57;;;3.40;;
14847;SDS011;7516;43.570;1.448;2023-07-24T09:23:25;4.72;;;3.45;;
14847;SDS011;7516;43.570;1.448;2023-07-24T09:25:54;4.53;;;2.90;;
14847;SDS011;7516;43.570;1.448;2023-07-24T09:28:22;3.70;;;2.90;;
14847;SDS011;7516;43.570;1.448;2023-07-24T09:30:53;4.53;;;2.60;;
14847;SDS011;7516;43.570;1.448;2023-07-24T09:33:22;4.50;;;2.90;;
14847;SDS011;7516;43.570;1.448;2023-07-24T09:36:00;3.85;;;2.75;;
14847;SDS011;7516;43.570;1.448;2023-07-24T09:38:28;3.92;;;3.22;;
14847;SDS011;7516;43.570;1.448;2023-07-24T09:40:57;6.22;;;3.15;;
14847;SDS011;7516;43.570;1.448;2023-07-24T09:43:27;3.10;;;2.80;;
14847;SDS011;7516;43.570;1.448;2023-07-24T09:45:55;3.55;;;2.88;;
14847;SDS011;7516;43.570;1.448;2023-07-24T09:48:24;5.53;;;3.42;;
14847;SDS011;7516;43.570;1.448;2023-07-24T09:50:52;6.30;;;3.13;;
14847;SDS011;7516;43.570;1.448;2023-07-24T09:53:22;3.22;;;2.83;;
14847;SDS011;7516;43.570;1.448;2023-07-24T09:55:59;6.28;;;3.08;;
14847;SDS011;7516;43.570;1.448;2023-07-24T09:58:27;3.88;;;2.90;;
14847;SDS011;7516;43.570;1.448;2023-07-24T10:00:55;3.60;;;3.00;;
14847;SDS011;7516;43.570;1.448;2023-07-24T10:03:23;3.35;;;2.80;;
14847;SDS011;7516;43.570;1.448;2023-07-24T10:05:52;3.63;;;3.17;;
14847;SDS011;7516;43.570;1.448;2023-07-24T10:08:19;4.55;;;2.70;;
14847;SDS011;7516;43.570;1.448;2023-07-24T10:10:47;3.85;;;2.72;;
14847;SDS011;7516;43.570;1.448;2023-07-24T10:13:19;3.15;;;2.83;;
14847;SDS011;7516;43.570;1.448;2023-07-24T10:15:48;4.28;;;2.42;;
14847;SDS011;7516;43.570;1.448;2023-07-24T10:18:16;3.17;;;2.80;;
14847;SDS011;7516;43.570;1.448;2023-07-24T10:20:44;5.55;;;2.80;;
14847;SDS011;7516;43.570;1.448;2023-07-24T10:23:16;4.70;;;2.83;;
14847;SDS011;7516;43.570;1.448;2023-07-24T10:25:45;4.20;;;2.42;;
14847;SDS011;7516;43.570;1.448;2023-07-24T10:28:18;4.10;;;2.58;;
14847;SDS011;7516;43.570;1.448;2023-07-24T10:30:56;3.10;;;2.70;;
14847;SDS011;7516;43.570;1.448;2023-07-24T10:33:23;3.83;;;2.60;;
14847;SDS011;7516;43.570;1.448;2023-07-24T10:35:53;3.10;;;2.08;;
14847;SDS011;7516;43.570;1.448;2023-07-24T10:38:32;3.90;;;2.75;;
14847;SDS011;7516;43.570;1.448;2023-07-24T10:41:02;3.92;;;2.20;;
14847;SDS011;7516;43.570;1.448;2023-07-24T10:43:41;4.07;;;2.30;;
14847;SDS011;7516;43.570;1.448;2023-07-24T10:46:09;2.58;;;1.95;;
14847;SDS011;7516;43.570;1.448;2023-07-24T10:48:38;3.63;;;2.15;;
14847;SDS011;7516;43.570;1.448;2023-07-24T10:51:09;3.08;;;2.20;;
14847;SDS011;7516;43.570;1.448;2023-07-24T10:53:41;3.47;;;2.38;;
14847;SDS011;7516;43.570;1.448;2023-07-24T10:56:10;3.90;;;2.35;;
14847;SDS011;7516;43.570;1.448;2023-07-24T10:58:37;3.25;;;1.95;;
14847;SDS011;7516;43.570;1.448;2023-07-24T11:01:06;3.50;;;2.00;;
14847;SDS011;7516;43.570;1.448;2023-07-24T11:03:36;2.78;;;2.30;;
14847;SDS011;7516;43.570;1.448;2023-07-24T11:06:04;3.88;;;2.50;;
14847;SDS011;7516;43.570;1.448;2023-07-24T11:08:31;3.15;;;2.42;;
14847;SDS011;7516;43.570;1.448;2023-07-24T11:11:01;2.72;;;2.53;;
14847;SDS011;7516;43.570;1.448;2023-07-24T11:13:29;3.78;;;2.40;;
14847;SDS011;7516;43.570;1.448;2023-07-24T11:16:03;2.55;;;2.30;;
14847;SDS011;7516;43.570;1.448;2023-07-24T11:18:33;3.47;;;2.20;;
14847;SDS011;7516;43.570;1.448;2023-07-24T11:21:11;3.03;;;2.47;;
14847;SDS011;7516;43.570;1.448;2023-07-24T11:23:44;3.10;;;2.40;;
14847;SDS011;7516;43.570;1.448;2023-07-24T11:26:15;3.28;;;2.53;;
14847;SDS011;7516;43.570;1.448;2023-07-24T11:28:46;2.92;;;2.22;;
14847;SDS011;7516;43.570;1.448;2023-07-24T11:31:15;3.90;;;2.40;;
14847;SDS011;7516;43.570;1.448;2023-07-24T11:33:46;3.45;;;2.45;;
14847;SDS011;7516;43.570;1.448;2023-07-24T11:36:14;3.42;;;2.47;;
14847;SDS011;7516;43.570;1.448;2023-07-24T11:38:44;4.43;;;2.42;;
14847;SDS011;7516;43.570;1.448;2023-07-24T11:41:11;5.55;;;2.97;;
14847;SDS011;7516;43.570;1.448;2023-07-24T11:43:45;5.60;;;2.67;;
14847;SDS011;7516;43.570;1.448;2023-07-24T11:46:21;4.13;;;2.50;;
14847;SDS011;7516;43.570;1.448;2023-07-24T11:48:51;4.40;;;2.65;;
14847;SDS011;7516;43.570;1.448;2023-07-24T11:51:21;2.90;;;2.60;;
14847;SDS011;7516;43.570;1.448;2023-07-24T11:53:50;3.90;;;2.47;;
14847;SDS011;7516;43.570;1.448;2023-07-24T11:56:19;3.47;;;2.55;;
14847;SDS011;7516;43.570;1.448;2023-07-24T11:58:47;4.20;;;2.92;;
14847;SDS011;7516;43.570;1.448;2023-07-24T12:01:15;3.70;;;2.50;;
14847;SDS011;7516;43.570;1.448;2023-07-24T12:03:42;3.22;;;2.40;;
14847;SDS011;7516;43.570;1.448;2023-07-24T12:06:15;3.13;;;2.38;;
14847;SDS011;7516;43.570;1.448;2023-07-24T12:08:43;3.97;;;2.83;;
14847;SDS011;7516;43.570;1.448;2023-07-24T12:11:15;3.30;;;2.63;;
14847;SDS011;7516;43.570;1.448;2023-07-24T12:13:43;3.00;;;2.45;;
14847;SDS011;7516;43.570;1.448;2023-07-24T12:16:11;2.85;;;2.42;;
14847;SDS011;7516;43.570;1.448;2023-07-24T12:18:38;4.55;;;2.90;;
14847;SDS011;7516;43.570;1.448;2023-07-24T12:21:06;3.85;;;2.72;;
14847;SDS011;7516;43.570;1.448;2023-07-24T12:23:35;4.50;;;2.58;;
14847;SDS011;7516;43.570;1.448;2023-07-24T12:26:02;4.28;;;2.55;;
14847;SDS011;7516;43.570;1.448;2023-07-24T12:28:30;4.13;;;2.78;;
14847;SDS011;7516;43.570;1.448;2023-07-24T12:30:58;6.38;;;3.17;;
14847;SDS011;7516;43.570;1.448;2023-07-24T12:33:25;2.92;;;2.50;;
14847;SDS011;7516;43.570;1.448;2023-07-24T12:35:53;5.38;;;2.88;;
14847;SDS011;7516;43.570;1.448;2023-07-24T12:38:20;2.55;;;2.35;;
14847;SDS011;7516;43.570;1.448;2023-07-24T12:40:49;7.07;;;2.70;;
14847;SDS011;7516;43.570;1.448;2023-07-24T12:43:16;2.95;;;2.60;;
14847;SDS011;7516;43.570;1.448;2023-07-24T12:45:44;4.28;;;2.70;;
14847;SDS011;7516;43.570;1.448;2023-07-24T12:48:11;4.82;;;2.75;;
14847;SDS011;7516;43.570;1.448;2023-07-24T12:50:39;3.28;;;2.58;;
14847;SDS011;7516;43.570;1.448;2023-07-24T12:53:07;4.85;;;3.05;;
14847;SDS011;7516;43.570;1.448;2023-07-24T12:55:34;3.03;;;2.60;;
14847;SDS011;7516;43.570;1.448;2023-07-24T12:58:03;8.05;;;3.47;;
14847;SDS011;7516;43.570;1.448;2023-07-24T13:00:30;4.22;;;2.70;;
14847;SDS011;7516;43.570;1.448;2023-07-24T13:02:58;3.20;;;2.42;;
14847;SDS011;7516;43.570;1.448;2023-07-24T13:05:25;2.90;;;2.58;;
14847;SDS011;7516;43.570;1.448;2023-07-24T13:07:53;3.13;;;2.33;;
14847;SDS011;7516;43.570;1.448;2023-07-24T13:10:20;3.85;;;2.47;;
14847;SDS011;7516;43.570;1.448;2023-07-24T13:12:48;4.03;;;2.60;;
14847;SDS011;7516;43.570;1.448;2023-07-24T13:15:17;5.65;;;3.03;;
14847;SDS011;7516;43.570;1.448;2023-07-24T13:17:44;3.40;;;2.20;;
14847;SDS011;7516;43.570;1.448;2023-07-24T13:20:12;3.03;;;2.40;;
14847;SDS011;7516;43.570;1.448;2023-07-24T13:22:39;2.90;;;2.42;;
14847;SDS011;7516;43.570;1.448;2023-07-24T13:25:11;4.50;;;2.53;;
14847;SDS011;7516;43.570;1.448;2023-07-24T13:27:39;4.18;;;2.95;;
14847;SDS011;7516;43.570;1.448;2023-07-24T13:30:06;2.40;;;2.20;;
14847;SDS011;7516;43.570;1.448;2023-07-24T13:32:35;2.22;;;2.03;;
14847;SDS011;7516;43.570;1.448;2023-07-24T13:35:03;5.07;;;2.10;;
14847;SDS011;7516;43.570;1.448;2023-07-24T13:37:31;3.28;;;2.30;;
14847;SDS011;7516;43.570;1.448;2023-07-24T13:39:58;2.65;;;2.10;;
14847;SDS011;7516;43.570;1.448;2023-07-24T13:42:26;2.30;;;2.10;;
14847;SDS011;7516;43.570;1.448;2023-07-24T13:44:53;2.35;;;2.10;;
14847;SDS011;7516;43.570;1.448;2023-07-24T13:47:21;2.65;;;2.30;;
14847;SDS011;7516;43.570;1.448;2023-07-24T13:49:50;2.95;;;2.20;;
14847;SDS011;7516;43.570;1.448;2023-07-24T13:52:17;2.55;;;2.13;;
14847;SDS011;7516;43.570;1.448;2023-07-24T13:54:45;2.80;;;2.00;;
14847;SDS011;7516;43.570;1.448;2023-07-24T13:57:12;2.63;;;2.10;;
14847;SDS011;7516;43.570;1.448;2023-07-24T13:59:40;2.22;;;1.88;;
14847;SDS011;7516;43.570;1.448;2023-07-24T14:02:07;3.88;;;2.00;;
14847;SDS011;7516;43.570;1.448;2023-07-24T14:04:35;2.75;;;2.20;;
14847;SDS011;7516;43.570;1.448;2023-07-24T14:07:04;3.50;;;2.20;;
14847;SDS011;7516;43.570;1.448;2023-07-24T14:09:32;2.80;;;2.30;;
14847;SDS011;7516;43.570;1.448;2023-07-24T14:12:00;2.50;;;2.20;;
14847;SDS011;7516;43.570;1.448;2023-07-24T14:14:27;2.25;;;2.05;;
14847;SDS011;7516;43.570;1.448;2023-07-24T14:16:55;1.98;;;1.70;;
14847;SDS011;7516;43.570;1.448;2023-07-24T14:19:23;2.90;;;1.95;;
14847;SDS011;7516;43.570;1.448;2023-07-24T14:21:51;2.42;;;1.88;;
14847;SDS011;7516;43.570;1.448;2023-07-24T14:24:20;2.10;;;1.77;;
14847;SDS011;7516;43.570;1.448;2023-07-24T14:26:47;2.78;;;1.50;;
14847;SDS011;7516;43.570;1.448;2023-07-24T14:29:15;2.78;;;1.70;;
14847;SDS011;7516;43.570;1.448;2023-07-24T14:31:43;1.90;;;1.63;;
14847;SDS011;7516;43.570;1.448;2023-07-24T14:34:10;1.65;;;1.40;;
14847;SDS011;7516;43.570;1.448;2023-07-24T14:36:38;1.88;;;1.40;;
14847;SDS011;7516;43.570;1.448;2023-07-24T14:39:05;2.78;;;1.50;;
14847;SDS011;7516;43.570;1.448;2023-07-24T14:41:35;1.88;;;1.55;;
14847;SDS011;7516;43.570;1.448;2023-07-24T14:44:02;3.90;;;1.85;;
14847;SDS011;7516;43.570;1.448;2023-07-24T14:46:30;2.20;;;1.63;;
14847;SDS011;7516;43.570;1.448;2023-07-24T14:48:57;2.28;;;1.70;;
14847;SDS011;7516;43.570;1.448;2023-07-24T14:51:25;3.15;;;1.83;;
14847;SDS011;7516;43.570;1.448;2023-07-24T14:53:52;1.83;;;1.45;;
14847;SDS011;7516;43.570;1.448;2023-07-24T14:56:20;1.90;;;1.35;;
14847;SDS011;7516;43.570;1.448;2023-07-24T14:58:49;2.33;;;1.65;;
14847;SDS011;7516;43.570;1.448;2023-07-24T15:01:16;3.50;;;1.75;;
14847;SDS011;7516;43.570;1.448;2023-07-24T15:03:44;2.63;;;1.80;;
14847;SDS011;7516;43.570;1.448;2023-07-24T15:06:11;2.28;;;1.63;;
14847;SDS011;7516;43.570;1.448;2023-07-24T15:08:39;3.83;;;1.70;;